sensor_id;sensor_type;location;lat;lon;timestamp;P1;durP1;ratioP1;P2;durP2;ratioP2
47625;SDS011;33342;45.574;9.252;2023-02-11T00:01:10;57.30;;;31.90;;
47625;SDS011;33342;45.574;9.252;2023-02-11T00:03:42;56.10;;;32.75;;
47625;SDS011;33342;45.574;9.252;2023-02-11T00:06:09;59.00;;;32.33;;
47625;SDS011;33342;45.574;9.252;2023-02-11T00:08:37;60.78;;;32.28;;
47625;SDS011;33342;45.574;9.252;2023-02-11T00:11:04;59.78;;;31.42;;
47625;SDS011;33342;45.574;9.252;2023-02-11T00:13:32;61.28;;;31.55;;
47625;SDS011;33342;45.574;9.252;2023-02-11T00:15:59;59.75;;;32.60;;
47625;SDS011;33342;45.574;9.252;2023-02-11T00:18:31;56.00;;;30.50;;
47625;SDS011;33342;45.574;9.252;2023-02-11T00:20:58;61.60;;;31.95;;
47625;SDS011;33342;45.574;9.252;2023-02-11T00:23:25;56.40;;;32.38;;
47625;SDS011;33342;45.574;9.252;2023-02-11T00:25:52;59.80;;;31.27;;
47625;SDS011;33342;45.574;9.252;2023-02-11T00:28:19;62.35;;;33.35;;
47625;SDS011;33342;45.574;9.252;2023-02-11T00:30:52;65.68;;;32.03;;
47625;SDS011;33342;45.574;9.252;2023-02-11T00:33:20;55.88;;;30.65;;
47625;SDS011;33342;45.574;9.252;2023-02-11T00:35:47;60.85;;;32.33;;
47625;SDS011;33342;45.574;9.252;2023-02-11T00:38:16;57.97;;;29.98;;
47625;SDS011;33342;45.574;9.252;2023-02-11T00:40:43;55.45;;;30.77;;
47625;SDS011;33342;45.574;9.252;2023-02-11T00:43:10;61.28;;;30.52;;
47625;SDS011;33342;45.574;9.252;2023-02-11T00:45:37;59.90;;;30.88;;
47625;SDS011;33342;45.574;9.252;2023-02-11T00:48:04;59.60;;;30.92;;
47625;SDS011;33342;45.574;9.252;2023-02-11T00:50:31;58.25;;;30.52;;
47625;SDS011;33342;45.574;9.252;2023-02-11T00:52:58;57.80;;;30.25;;
47625;SDS011;33342;45.574;9.252;2023-02-11T00:55:25;54.38;;;30.65;;
47625;SDS011;33342;45.574;9.252;2023-02-11T00:57:53;59.03;;;29.58;;
47625;SDS011;33342;45.574;9.252;2023-02-11T01:00:20;60.10;;;31.52;;
47625;SDS011;33342;45.574;9.252;2023-02-11T01:02:47;60.00;;;31.45;;
47625;SDS011;33342;45.574;9.252;2023-02-11T01:05:14;59.58;;;32.45;;
47625;SDS011;33342;45.574;9.252;2023-02-11T01:07:41;63.38;;;33.60;;
47625;SDS011;33342;45.574;9.252;2023-02-11T01:10:09;54.33;;;31.90;;
47625;SDS011;33342;45.574;9.252;2023-02-11T01:12:36;56.45;;;29.98;;
47625;SDS011;33342;45.574;9.252;2023-02-11T01:15:04;54.40;;;28.83;;
47625;SDS011;33342;45.574;9.252;2023-02-11T01:17:32;57.85;;;28.67;;
47625;SDS011;33342;45.574;9.252;2023-02-11T01:20:07;59.22;;;29.83;;
47625;SDS011;33342;45.574;9.252;2023-02-11T01:22:39;56.38;;;30.45;;
47625;SDS011;33342;45.574;9.252;2023-02-11T01:25:06;52.40;;;28.92;;
47625;SDS011;33342;45.574;9.252;2023-02-11T01:27:34;55.17;;;29.60;;
47625;SDS011;33342;45.574;9.252;2023-02-11T01:30:02;54.15;;;28.95;;
47625;SDS011;33342;45.574;9.252;2023-02-11T01:32:31;49.60;;;26.75;;
47625;SDS011;33342;45.574;9.252;2023-02-11T01:34:58;56.22;;;30.48;;
47625;SDS011;33342;45.574;9.252;2023-02-11T01:37:25;58.38;;;31.20;;
47625;SDS011;33342;45.574;9.252;2023-02-11T01:39:52;54.83;;;30.35;;
47625;SDS011;33342;45.574;9.252;2023-02-11T01:42:21;54.58;;;30.17;;
47625;SDS011;33342;45.574;9.252;2023-02-11T01:44:50;53.22;;;29.55;;
47625;SDS011;33342;45.574;9.252;2023-02-11T01:47:19;50.65;;;29.33;;
47625;SDS011;33342;45.574;9.252;2023-02-11T01:49:51;55.97;;;29.55;;
47625;SDS011;33342;45.574;9.252;2023-02-11T01:52:26;53.67;;;30.30;;
47625;SDS011;33342;45.574;9.252;2023-02-11T01:55:04;47.40;;;27.00;;
47625;SDS011;33342;45.574;9.252;2023-02-11T01:57:55;52.35;;;28.08;;
47625;SDS011;33342;45.574;9.252;2023-02-11T02:00:36;50.00;;;29.67;;
47625;SDS011;33342;45.574;9.252;2023-02-11T02:03:05;53.13;;;28.92;;
47625;SDS011;33342;45.574;9.252;2023-02-11T02:05:39;51.47;;;27.17;;
47625;SDS011;33342;45.574;9.252;2023-02-11T02:10:54;51.45;;;28.92;;
47625;SDS011;33342;45.574;9.252;2023-02-11T02:13:24;53.38;;;27.42;;
47625;SDS011;33342;45.574;9.252;2023-02-11T02:15:52;56.60;;;30.58;;
47625;SDS011;33342;45.574;9.252;2023-02-11T02:29:36;51.95;;;28.30;;
47625;SDS011;33342;45.574;9.252;2023-02-11T02:32:46;56.40;;;29.00;;
47625;SDS011;33342;45.574;9.252;2023-02-11T02:39:00;50.45;;;26.65;;
47625;SDS011;33342;45.574;9.252;2023-02-11T02:41:08;52.90;;;28.45;;
47625;SDS011;33342;45.574;9.252;2023-02-11T02:43:39;48.63;;;27.63;;
47625;SDS011;33342;45.574;9.252;2023-02-11T02:46:43;53.22;;;28.35;;
47625;SDS011;33342;45.574;9.252;2023-02-11T02:49:14;51.47;;;27.27;;
47625;SDS011;33342;45.574;9.252;2023-02-11T02:56:53;51.42;;;27.48;;
47625;SDS011;33342;45.574;9.252;2023-02-11T02:59:57;47.85;;;26.92;;
47625;SDS011;33342;45.574;9.252;2023-02-11T03:02:35;48.55;;;26.60;;
47625;SDS011;33342;45.574;9.252;2023-02-11T03:10:30;52.65;;;28.20;;
47625;SDS011;33342;45.574;9.252;2023-02-11T03:13:01;46.40;;;24.67;;
47625;SDS011;33342;45.574;9.252;2023-02-11T03:15:31;51.78;;;27.30;;
47625;SDS011;33342;45.574;9.252;2023-02-11T03:18:02;45.58;;;25.65;;
47625;SDS011;33342;45.574;9.252;2023-02-11T03:20:32;47.15;;;27.08;;
47625;SDS011;33342;45.574;9.252;2023-02-11T03:25:47;54.33;;;26.95;;
47625;SDS011;33342;45.574;9.252;2023-02-11T03:28:24;53.10;;;28.05;;
47625;SDS011;33342;45.574;9.252;2023-02-11T03:34:06;51.15;;;25.08;;
47625;SDS011;33342;45.574;9.252;2023-02-11T03:39:35;45.65;;;25.67;;
47625;SDS011;33342;45.574;9.252;2023-02-11T03:42:02;50.58;;;26.55;;
47625;SDS011;33342;45.574;9.252;2023-02-11T03:44:32;50.65;;;25.63;;
47625;SDS011;33342;45.574;9.252;2023-02-11T03:47:04;46.97;;;26.10;;
47625;SDS011;33342;45.574;9.252;2023-02-11T03:49:34;55.17;;;25.60;;
47625;SDS011;33342;45.574;9.252;2023-02-11T03:52:05;49.95;;;25.92;;
47625;SDS011;33342;45.574;9.252;2023-02-11T03:54:33;48.85;;;25.50;;
47625;SDS011;33342;45.574;9.252;2023-02-11T03:57:01;50.28;;;25.02;;
47625;SDS011;33342;45.574;9.252;2023-02-11T03:59:28;51.55;;;26.75;;
47625;SDS011;33342;45.574;9.252;2023-02-11T04:01:55;48.92;;;26.33;;
47625;SDS011;33342;45.574;9.252;2023-02-11T04:04:24;51.78;;;25.40;;
47625;SDS011;33342;45.574;9.252;2023-02-11T04:06:51;45.45;;;23.33;;
47625;SDS011;33342;45.574;9.252;2023-02-11T04:09:18;50.95;;;26.10;;
47625;SDS011;33342;45.574;9.252;2023-02-11T04:11:45;46.22;;;24.80;;
47625;SDS011;33342;45.574;9.252;2023-02-11T04:14:12;45.00;;;24.08;;
47625;SDS011;33342;45.574;9.252;2023-02-11T04:16:39;55.20;;;25.92;;
47625;SDS011;33342;45.574;9.252;2023-02-11T04:19:06;46.72;;;25.80;;
47625;SDS011;33342;45.574;9.252;2023-02-11T04:21:33;48.50;;;25.17;;
47625;SDS011;33342;45.574;9.252;2023-02-11T04:24:01;48.15;;;25.25;;
47625;SDS011;33342;45.574;9.252;2023-02-11T04:26:27;51.85;;;25.13;;
47625;SDS011;33342;45.574;9.252;2023-02-11T04:28:54;49.85;;;26.67;;
47625;SDS011;33342;45.574;9.252;2023-02-11T04:31:21;46.28;;;25.52;;
47625;SDS011;33342;45.574;9.252;2023-02-11T04:33:49;48.78;;;25.83;;
47625;SDS011;33342;45.574;9.252;2023-02-11T04:36:16;51.88;;;25.10;;
47625;SDS011;33342;45.574;9.252;2023-02-11T04:38:42;49.28;;;24.27;;
47625;SDS011;33342;45.574;9.252;2023-02-11T04:41:09;43.90;;;22.90;;
47625;SDS011;33342;45.574;9.252;2023-02-11T04:43:36;44.10;;;23.67;;
47625;SDS011;33342;45.574;9.252;2023-02-11T04:46:03;43.80;;;25.00;;
47625;SDS011;33342;45.574;9.252;2023-02-11T04:48:31;42.83;;;22.27;;
47625;SDS011;33342;45.574;9.252;2023-02-11T04:50:58;40.50;;;22.48;;
47625;SDS011;33342;45.574;9.252;2023-02-11T04:53:25;40.63;;;22.55;;
47625;SDS011;33342;45.574;9.252;2023-02-11T04:55:52;41.45;;;23.33;;
47625;SDS011;33342;45.574;9.252;2023-02-11T04:58:19;41.50;;;22.42;;
47625;SDS011;33342;45.574;9.252;2023-02-11T05:00:46;47.70;;;22.23;;
47625;SDS011;33342;45.574;9.252;2023-02-11T05:03:13;43.70;;;23.65;;
47625;SDS011;33342;45.574;9.252;2023-02-11T05:05:41;38.85;;;22.40;;
47625;SDS011;33342;45.574;9.252;2023-02-11T05:08:09;44.10;;;23.73;;
47625;SDS011;33342;45.574;9.252;2023-02-11T05:10:36;41.97;;;23.35;;
47625;SDS011;33342;45.574;9.252;2023-02-11T05:13:04;39.60;;;22.63;;
47625;SDS011;33342;45.574;9.252;2023-02-11T05:15:31;41.90;;;22.52;;
47625;SDS011;33342;45.574;9.252;2023-02-11T05:17:58;45.58;;;22.77;;
47625;SDS011;33342;45.574;9.252;2023-02-11T05:20:25;42.75;;;23.27;;
47625;SDS011;33342;45.574;9.252;2023-02-11T05:22:52;35.33;;;20.25;;
47625;SDS011;33342;45.574;9.252;2023-02-11T05:25:19;40.03;;;21.40;;
47625;SDS011;33342;45.574;9.252;2023-02-11T05:27:46;39.90;;;21.05;;
47625;SDS011;33342;45.574;9.252;2023-02-11T05:30:13;39.45;;;22.00;;
47625;SDS011;33342;45.574;9.252;2023-02-11T05:32:40;43.83;;;21.88;;
47625;SDS011;33342;45.574;9.252;2023-02-11T05:35:07;39.28;;;20.98;;
47625;SDS011;33342;45.574;9.252;2023-02-11T05:37:34;36.90;;;21.40;;
47625;SDS011;33342;45.574;9.252;2023-02-11T05:40:02;39.60;;;22.73;;
47625;SDS011;33342;45.574;9.252;2023-02-11T05:42:29;38.53;;;21.60;;
47625;SDS011;33342;45.574;9.252;2023-02-11T05:44:56;44.75;;;22.55;;
47625;SDS011;33342;45.574;9.252;2023-02-11T05:47:23;41.78;;;22.85;;
47625;SDS011;33342;45.574;9.252;2023-02-11T05:49:50;36.97;;;22.48;;
47625;SDS011;33342;45.574;9.252;2023-02-11T05:52:19;40.65;;;22.45;;
47625;SDS011;33342;45.574;9.252;2023-02-11T05:54:47;44.08;;;22.65;;
47625;SDS011;33342;45.574;9.252;2023-02-11T05:57:15;37.13;;;22.48;;
47625;SDS011;33342;45.574;9.252;2023-02-11T05:59:42;42.65;;;23.30;;
47625;SDS011;33342;45.574;9.252;2023-02-11T06:02:10;40.35;;;21.75;;
47625;SDS011;33342;45.574;9.252;2023-02-11T06:04:38;39.47;;;21.30;;
47625;SDS011;33342;45.574;9.252;2023-02-11T06:07:05;38.30;;;22.15;;
47625;SDS011;33342;45.574;9.252;2023-02-11T06:09:32;41.72;;;21.23;;
47625;SDS011;33342;45.574;9.252;2023-02-11T06:11:59;40.58;;;21.60;;
47625;SDS011;33342;45.574;9.252;2023-02-11T06:14:26;39.33;;;22.33;;
47625;SDS011;33342;45.574;9.252;2023-02-11T06:16:53;40.85;;;22.90;;
47625;SDS011;33342;45.574;9.252;2023-02-11T06:19:20;40.42;;;21.77;;
47625;SDS011;33342;45.574;9.252;2023-02-11T06:21:47;40.20;;;21.48;;
47625;SDS011;33342;45.574;9.252;2023-02-11T06:24:14;41.47;;;22.38;;
47625;SDS011;33342;45.574;9.252;2023-02-11T06:26:50;43.83;;;22.67;;
47625;SDS011;33342;45.574;9.252;2023-02-11T06:29:17;42.80;;;22.58;;
47625;SDS011;33342;45.574;9.252;2023-02-11T06:31:44;41.90;;;22.20;;
47625;SDS011;33342;45.574;9.252;2023-02-11T06:34:11;47.50;;;24.58;;
47625;SDS011;33342;45.574;9.252;2023-02-11T06:36:38;40.67;;;23.75;;
47625;SDS011;33342;45.574;9.252;2023-02-11T06:39:06;41.15;;;23.55;;
47625;SDS011;33342;45.574;9.252;2023-02-11T06:41:33;48.97;;;23.90;;
47625;SDS011;33342;45.574;9.252;2023-02-11T06:44:00;40.60;;;22.83;;
47625;SDS011;33342;45.574;9.252;2023-02-11T06:46:27;43.53;;;23.80;;
47625;SDS011;33342;45.574;9.252;2023-02-11T06:48:55;42.08;;;23.23;;
47625;SDS011;33342;45.574;9.252;2023-02-11T06:51:22;44.80;;;23.83;;
47625;SDS011;33342;45.574;9.252;2023-02-11T06:53:49;44.60;;;22.65;;
47625;SDS011;33342;45.574;9.252;2023-02-11T06:56:20;44.42;;;23.67;;
47625;SDS011;33342;45.574;9.252;2023-02-11T06:58:51;43.42;;;23.80;;
47625;SDS011;33342;45.574;9.252;2023-02-11T07:01:20;40.00;;;21.92;;
47625;SDS011;33342;45.574;9.252;2023-02-11T07:03:48;45.03;;;22.70;;
47625;SDS011;33342;45.574;9.252;2023-02-11T07:06:17;43.80;;;22.88;;
47625;SDS011;33342;45.574;9.252;2023-02-11T07:08:45;39.50;;;23.33;;
47625;SDS011;33342;45.574;9.252;2023-02-11T07:11:14;42.65;;;23.20;;
47625;SDS011;33342;45.574;9.252;2023-02-11T07:13:41;36.90;;;20.63;;
47625;SDS011;33342;45.574;9.252;2023-02-11T07:16:10;45.75;;;22.85;;
47625;SDS011;33342;45.574;9.252;2023-02-11T07:18:39;39.08;;;22.98;;
47625;SDS011;33342;45.574;9.252;2023-02-11T07:21:07;46.28;;;22.63;;
47625;SDS011;33342;45.574;9.252;2023-02-11T07:23:37;37.55;;;21.52;;
47625;SDS011;33342;45.574;9.252;2023-02-11T07:26:07;41.88;;;23.67;;
47625;SDS011;33342;45.574;9.252;2023-02-11T07:28:38;43.15;;;21.38;;
47625;SDS011;33342;45.574;9.252;2023-02-11T07:31:11;40.78;;;23.35;;
47625;SDS011;33342;45.574;9.252;2023-02-11T07:33:43;39.95;;;21.85;;
47625;SDS011;33342;45.574;9.252;2023-02-11T07:36:14;45.20;;;23.02;;
47625;SDS011;33342;45.574;9.252;2023-02-11T07:38:42;45.83;;;23.05;;
47625;SDS011;33342;45.574;9.252;2023-02-11T07:41:11;49.25;;;22.48;;
47625;SDS011;33342;45.574;9.252;2023-02-11T07:43:43;46.65;;;23.60;;
47625;SDS011;33342;45.574;9.252;2023-02-11T07:46:12;42.25;;;22.38;;
47625;SDS011;33342;45.574;9.252;2023-02-11T07:48:41;47.53;;;22.38;;
47625;SDS011;33342;45.574;9.252;2023-02-11T07:51:15;43.33;;;23.65;;
47625;SDS011;33342;45.574;9.252;2023-02-11T07:54:00;38.88;;;22.98;;
47625;SDS011;33342;45.574;9.252;2023-02-11T07:56:28;43.22;;;23.38;;
47625;SDS011;33342;45.574;9.252;2023-02-11T07:58:57;45.53;;;24.95;;
47625;SDS011;33342;45.574;9.252;2023-02-11T08:01:26;44.80;;;23.10;;
47625;SDS011;33342;45.574;9.252;2023-02-11T08:03:54;46.08;;;23.48;;
47625;SDS011;33342;45.574;9.252;2023-02-11T08:06:23;46.55;;;25.52;;
47625;SDS011;33342;45.574;9.252;2023-02-11T08:08:51;41.38;;;22.98;;
47625;SDS011;33342;45.574;9.252;2023-02-11T08:11:20;46.70;;;24.70;;
47625;SDS011;33342;45.574;9.252;2023-02-11T08:13:51;41.70;;;24.88;;
47625;SDS011;33342;45.574;9.252;2023-02-11T08:16:21;40.22;;;23.10;;
47625;SDS011;33342;45.574;9.252;2023-02-11T08:18:50;47.38;;;25.30;;
47625;SDS011;33342;45.574;9.252;2023-02-11T08:21:18;45.88;;;25.00;;
47625;SDS011;33342;45.574;9.252;2023-02-11T08:23:46;53.55;;;26.02;;
47625;SDS011;33342;45.574;9.252;2023-02-11T08:26:14;42.97;;;24.02;;
47625;SDS011;33342;45.574;9.252;2023-02-11T08:28:49;53.17;;;29.25;;
47625;SDS011;33342;45.574;9.252;2023-02-11T08:31:19;55.20;;;26.67;;
47625;SDS011;33342;45.574;9.252;2023-02-11T08:33:48;49.25;;;27.50;;
47625;SDS011;33342;45.574;9.252;2023-02-11T08:36:19;46.45;;;23.95;;
47625;SDS011;33342;45.574;9.252;2023-02-11T08:38:48;55.83;;;27.40;;
47625;SDS011;33342;45.574;9.252;2023-02-11T08:41:16;53.70;;;28.73;;
47625;SDS011;33342;45.574;9.252;2023-02-11T08:43:43;51.47;;;26.63;;
47625;SDS011;33342;45.574;9.252;2023-02-11T08:46:15;52.97;;;26.15;;
47625;SDS011;33342;45.574;9.252;2023-02-11T08:48:44;48.35;;;26.10;;
47625;SDS011;33342;45.574;9.252;2023-02-11T08:51:13;63.20;;;25.63;;
47625;SDS011;33342;45.574;9.252;2023-02-11T08:53:43;48.42;;;24.90;;
47625;SDS011;33342;45.574;9.252;2023-02-11T08:56:12;43.33;;;24.02;;
47625;SDS011;33342;45.574;9.252;2023-02-11T08:58:41;51.30;;;26.13;;
47625;SDS011;33342;45.574;9.252;2023-02-11T09:01:12;47.05;;;24.00;;
47625;SDS011;33342;45.574;9.252;2023-02-11T09:03:42;44.78;;;24.67;;
47625;SDS011;33342;45.574;9.252;2023-02-11T09:06:10;49.35;;;25.60;;
47625;SDS011;33342;45.574;9.252;2023-02-11T09:08:39;52.20;;;26.67;;
47625;SDS011;33342;45.574;9.252;2023-02-11T09:11:11;49.80;;;26.70;;
47625;SDS011;33342;45.574;9.252;2023-02-11T09:13:40;46.90;;;24.92;;
47625;SDS011;33342;45.574;9.252;2023-02-11T09:16:12;46.47;;;25.15;;
47625;SDS011;33342;45.574;9.252;2023-02-11T09:18:49;51.08;;;25.63;;
47625;SDS011;33342;45.574;9.252;2023-02-11T09:21:16;43.95;;;24.10;;
47625;SDS011;33342;45.574;9.252;2023-02-11T09:23:45;45.22;;;25.58;;
47625;SDS011;33342;45.574;9.252;2023-02-11T09:26:15;57.35;;;26.13;;
47625;SDS011;33342;45.574;9.252;2023-02-11T09:28:44;42.05;;;23.63;;
47625;SDS011;33342;45.574;9.252;2023-02-11T09:31:13;39.90;;;23.40;;
47625;SDS011;33342;45.574;9.252;2023-02-11T09:33:43;55.72;;;26.90;;
47625;SDS011;33342;45.574;9.252;2023-02-11T09:36:16;46.85;;;23.60;;
47625;SDS011;33342;45.574;9.252;2023-02-11T09:38:45;52.47;;;23.92;;
47625;SDS011;33342;45.574;9.252;2023-02-11T09:46:26;55.22;;;27.70;;
47625;SDS011;33342;45.574;9.252;2023-02-11T09:48:57;52.42;;;26.83;;
47625;SDS011;33342;45.574;9.252;2023-02-11T09:51:34;50.17;;;26.90;;
47625;SDS011;33342;45.574;9.252;2023-02-11T09:54:12;50.20;;;27.48;;
47625;SDS011;33342;45.574;9.252;2023-02-11T09:56:47;43.63;;;25.85;;
47625;SDS011;33342;45.574;9.252;2023-02-11T09:59:14;45.13;;;25.48;;
47625;SDS011;33342;45.574;9.252;2023-02-11T10:01:47;51.70;;;25.52;;
47625;SDS011;33342;45.574;9.252;2023-02-11T10:06:46;46.90;;;23.52;;
47625;SDS011;33342;45.574;9.252;2023-02-11T10:09:24;41.33;;;21.08;;
47625;SDS011;33342;45.574;9.252;2023-02-11T10:12:11;46.88;;;22.83;;
47625;SDS011;33342;45.574;9.252;2023-02-11T10:22:54;44.25;;;22.17;;
47625;SDS011;33342;45.574;9.252;2023-02-11T10:25:37;39.55;;;21.05;;
47625;SDS011;33342;45.574;9.252;2023-02-11T10:28:12;46.60;;;22.08;;
47625;SDS011;33342;45.574;9.252;2023-02-11T10:30:42;43.13;;;22.77;;
47625;SDS011;33342;45.574;9.252;2023-02-11T10:36:05;41.10;;;22.73;;
47625;SDS011;33342;45.574;9.252;2023-02-11T10:38:32;43.92;;;21.67;;
47625;SDS011;33342;45.574;9.252;2023-02-11T10:41:01;38.10;;;22.13;;
47625;SDS011;33342;45.574;9.252;2023-02-11T10:43:29;38.25;;;20.60;;
47625;SDS011;33342;45.574;9.252;2023-02-11T10:45:57;35.83;;;20.35;;
47625;SDS011;33342;45.574;9.252;2023-02-11T10:48:36;36.80;;;20.73;;
47625;SDS011;33342;45.574;9.252;2023-02-11T10:53:47;40.38;;;20.15;;
47625;SDS011;33342;45.574;9.252;2023-02-11T10:56:30;41.42;;;21.85;;
47625;SDS011;33342;45.574;9.252;2023-02-11T10:59:04;39.63;;;20.83;;
47625;SDS011;33342;45.574;9.252;2023-02-11T11:07:27;35.72;;;18.15;;
47625;SDS011;33342;45.574;9.252;2023-02-11T11:12:51;31.98;;;20.67;;
47625;SDS011;33342;45.574;9.252;2023-02-11T11:15:22;37.83;;;19.55;;
47625;SDS011;33342;45.574;9.252;2023-02-11T11:18:11;35.42;;;18.08;;
47625;SDS011;33342;45.574;9.252;2023-02-11T11:23:25;33.85;;;18.63;;
47625;SDS011;33342;45.574;9.252;2023-02-11T11:28:49;33.38;;;19.10;;
47625;SDS011;33342;45.574;9.252;2023-02-11T11:31:35;35.47;;;18.27;;
47625;SDS011;33342;45.574;9.252;2023-02-11T11:34:18;36.38;;;20.45;;
47625;SDS011;33342;45.574;9.252;2023-02-11T11:36:54;37.35;;;20.73;;
47625;SDS011;33342;45.574;9.252;2023-02-11T11:39:29;39.65;;;21.13;;
47625;SDS011;33342;45.574;9.252;2023-02-11T11:50:00;39.55;;;20.33;;
47625;SDS011;33342;45.574;9.252;2023-02-11T11:52:40;37.10;;;20.95;;
47625;SDS011;33342;45.574;9.252;2023-02-11T11:55:17;37.13;;;20.45;;
47625;SDS011;33342;45.574;9.252;2023-02-11T11:57:46;44.58;;;24.48;;
47625;SDS011;33342;45.574;9.252;2023-02-11T12:00:15;39.30;;;22.63;;
47625;SDS011;33342;45.574;9.252;2023-02-11T12:02:54;33.53;;;20.70;;
47625;SDS011;33342;45.574;9.252;2023-02-11T12:05:45;41.03;;;23.45;;
47625;SDS011;33342;45.574;9.252;2023-02-11T12:08:58;35.92;;;22.92;;
47625;SDS011;33342;45.574;9.252;2023-02-11T12:14:32;38.53;;;22.17;;
47625;SDS011;33342;45.574;9.252;2023-02-11T12:23:09;36.75;;;20.88;;
47625;SDS011;33342;45.574;9.252;2023-02-11T12:40:17;36.47;;;19.52;;
47625;SDS011;33342;45.574;9.252;2023-02-11T12:43:03;34.28;;;20.33;;
47625;SDS011;33342;45.574;9.252;2023-02-11T12:56:50;31.88;;;19.05;;
47625;SDS011;33342;45.574;9.252;2023-02-11T12:59:43;31.23;;;18.88;;
47625;SDS011;33342;45.574;9.252;2023-02-11T13:02:43;31.63;;;15.60;;
47625;SDS011;33342;45.574;9.252;2023-02-11T13:08:11;35.70;;;17.25;;
47625;SDS011;33342;45.574;9.252;2023-02-11T13:10:45;30.70;;;18.48;;
47625;SDS011;33342;45.574;9.252;2023-02-11T13:13:18;30.73;;;17.80;;
47625;SDS011;33342;45.574;9.252;2023-02-11T13:15:58;36.00;;;17.38;;
47625;SDS011;33342;45.574;9.252;2023-02-11T13:18:48;28.70;;;17.33;;
47625;SDS011;33342;45.574;9.252;2023-02-11T13:35:29;29.50;;;15.25;;
47625;SDS011;33342;45.574;9.252;2023-02-11T13:37:58;26.98;;;16.50;;
47625;SDS011;33342;45.574;9.252;2023-02-11T13:40:29;27.23;;;15.93;;
47625;SDS011;33342;45.574;9.252;2023-02-11T13:43:00;27.02;;;14.82;;
47625;SDS011;33342;45.574;9.252;2023-02-11T13:45:34;28.20;;;15.23;;
47625;SDS011;33342;45.574;9.252;2023-02-11T13:50:58;30.58;;;15.93;;
47625;SDS011;33342;45.574;9.252;2023-02-11T13:53:27;27.67;;;14.68;;
47625;SDS011;33342;45.574;9.252;2023-02-11T13:56:09;26.17;;;14.93;;
47625;SDS011;33342;45.574;9.252;2023-02-11T13:58:48;29.02;;;15.48;;
47625;SDS011;33342;45.574;9.252;2023-02-11T14:04:33;28.77;;;15.52;;
47625;SDS011;33342;45.574;9.252;2023-02-11T14:07:26;27.05;;;14.30;;
47625;SDS011;33342;45.574;9.252;2023-02-11T14:13:24;28.60;;;11.98;;
47625;SDS011;33342;45.574;9.252;2023-02-11T14:16:02;24.23;;;12.93;;
47625;SDS011;33342;45.574;9.252;2023-02-11T14:23:39;22.88;;;13.70;;
47625;SDS011;33342;45.574;9.252;2023-02-11T14:26:21;24.63;;;13.57;;
47625;SDS011;33342;45.574;9.252;2023-02-11T14:28:59;23.05;;;14.25;;
47625;SDS011;33342;45.574;9.252;2023-02-11T14:35:09;27.10;;;14.48;;
47625;SDS011;33342;45.574;9.252;2023-02-11T14:40:32;23.15;;;14.25;;
47625;SDS011;33342;45.574;9.252;2023-02-11T14:43:13;22.20;;;13.55;;
47625;SDS011;33342;45.574;9.252;2023-02-11T14:46:02;23.75;;;18.33;;
47625;SDS011;33342;45.574;9.252;2023-02-11T14:48:30;26.83;;;19.58;;
47625;SDS011;33342;45.574;9.252;2023-02-11T14:51:07;29.83;;;16.90;;
47625;SDS011;33342;45.574;9.252;2023-02-11T14:53:46;27.08;;;15.38;;
47625;SDS011;33342;45.574;9.252;2023-02-11T14:56:24;27.85;;;19.15;;
47625;SDS011;33342;45.574;9.252;2023-02-11T14:58:54;34.55;;;18.35;;
47625;SDS011;33342;45.574;9.252;2023-02-11T15:01:25;30.15;;;15.98;;
47625;SDS011;33342;45.574;9.252;2023-02-11T15:04:00;24.98;;;14.35;;
47625;SDS011;33342;45.574;9.252;2023-02-11T15:06:36;24.80;;;15.32;;
47625;SDS011;33342;45.574;9.252;2023-02-11T15:09:05;27.95;;;14.88;;
47625;SDS011;33342;45.574;9.252;2023-02-11T15:11:45;24.67;;;15.00;;
47625;SDS011;33342;45.574;9.252;2023-02-11T15:14:23;23.00;;;13.48;;
47625;SDS011;33342;45.574;9.252;2023-02-11T15:16:57;24.50;;;14.20;;
47625;SDS011;33342;45.574;9.252;2023-02-11T15:19:48;26.83;;;14.13;;
47625;SDS011;33342;45.574;9.252;2023-02-11T15:22:17;24.90;;;14.05;;
47625;SDS011;33342;45.574;9.252;2023-02-11T15:27:55;30.52;;;15.00;;
47625;SDS011;33342;45.574;9.252;2023-02-11T15:30:28;28.10;;;16.13;;
47625;SDS011;33342;45.574;9.252;2023-02-11T15:33:21;26.30;;;15.75;;
47625;SDS011;33342;45.574;9.252;2023-02-11T15:35:50;26.75;;;14.90;;
47625;SDS011;33342;45.574;9.252;2023-02-11T15:38:17;29.58;;;19.00;;
47625;SDS011;33342;45.574;9.252;2023-02-11T15:44:25;24.98;;;14.55;;
47625;SDS011;33342;45.574;9.252;2023-02-11T15:46:54;27.73;;;15.07;;
47625;SDS011;33342;45.574;9.252;2023-02-11T15:49:21;24.60;;;14.60;;
47625;SDS011;33342;45.574;9.252;2023-02-11T15:51:50;27.30;;;15.93;;
47625;SDS011;33342;45.574;9.252;2023-02-11T15:54:20;27.13;;;14.48;;
47625;SDS011;33342;45.574;9.252;2023-02-11T15:56:52;24.98;;;15.75;;
47625;SDS011;33342;45.574;9.252;2023-02-11T15:59:26;30.10;;;16.20;;
47625;SDS011;33342;45.574;9.252;2023-02-11T16:02:15;27.33;;;16.45;;
47625;SDS011;33342;45.574;9.252;2023-02-11T16:05:00;29.27;;;15.15;;
47625;SDS011;33342;45.574;9.252;2023-02-11T16:07:41;25.95;;;14.88;;
47625;SDS011;33342;45.574;9.252;2023-02-11T16:10:21;27.60;;;15.75;;
47625;SDS011;33342;45.574;9.252;2023-02-11T16:18:42;26.25;;;14.55;;
47625;SDS011;33342;45.574;9.252;2023-02-11T16:21:03;30.02;;;15.98;;
47625;SDS011;33342;45.574;9.252;2023-02-11T16:23:35;27.15;;;14.88;;
47625;SDS011;33342;45.574;9.252;2023-02-11T16:28:45;29.20;;;16.95;;
47625;SDS011;33342;45.574;9.252;2023-02-11T16:31:13;28.85;;;15.25;;
47625;SDS011;33342;45.574;9.252;2023-02-11T16:33:40;33.38;;;15.18;;
47625;SDS011;33342;45.574;9.252;2023-02-11T16:36:11;27.42;;;15.27;;
47625;SDS011;33342;45.574;9.252;2023-02-11T16:38:39;34.03;;;15.80;;
47625;SDS011;33342;45.574;9.252;2023-02-11T16:41:06;29.27;;;16.63;;
47625;SDS011;33342;45.574;9.252;2023-02-11T16:43:34;32.67;;;15.35;;
47625;SDS011;33342;45.574;9.252;2023-02-11T16:46:01;28.52;;;16.17;;
47625;SDS011;33342;45.574;9.252;2023-02-11T16:48:29;32.42;;;15.98;;
47625;SDS011;33342;45.574;9.252;2023-02-11T16:50:57;29.65;;;15.90;;
47625;SDS011;33342;45.574;9.252;2023-02-11T16:53:24;30.05;;;16.35;;
47625;SDS011;33342;45.574;9.252;2023-02-11T16:55:51;29.25;;;15.65;;
47625;SDS011;33342;45.574;9.252;2023-02-11T16:58:20;29.08;;;15.07;;
47625;SDS011;33342;45.574;9.252;2023-02-11T17:00:47;29.70;;;16.20;;
47625;SDS011;33342;45.574;9.252;2023-02-11T17:03:16;32.33;;;16.42;;
47625;SDS011;33342;45.574;9.252;2023-02-11T17:05:48;33.47;;;18.02;;
47625;SDS011;33342;45.574;9.252;2023-02-11T17:08:23;78.57;;;36.15;;
47625;SDS011;33342;45.574;9.252;2023-02-11T17:10:50;34.67;;;19.05;;
47625;SDS011;33342;45.574;9.252;2023-02-11T17:13:18;34.80;;;17.70;;
47625;SDS011;33342;45.574;9.252;2023-02-11T17:15:45;41.03;;;18.52;;
47625;SDS011;33342;45.574;9.252;2023-02-11T17:18:12;35.78;;;16.58;;
47625;SDS011;33342;45.574;9.252;2023-02-11T17:20:40;37.28;;;19.92;;
47625;SDS011;33342;45.574;9.252;2023-02-11T17:23:07;34.40;;;19.70;;
47625;SDS011;33342;45.574;9.252;2023-02-11T17:25:35;35.45;;;19.17;;
47625;SDS011;33342;45.574;9.252;2023-02-11T17:28:03;32.88;;;18.38;;
47625;SDS011;33342;45.574;9.252;2023-02-11T17:30:31;36.28;;;19.55;;
47625;SDS011;33342;45.574;9.252;2023-02-11T17:32:58;33.30;;;18.15;;